Pittsburgh, Pennsylvania
Traffic Map
Current Weather Conditions
Pittsburgh, Pennsylvania
Clear
Clear

Feels Like: 6°
Wind Chill: Ceiling: Unl
Heat Index: Visibility: 10mi
Dew Point: Wind: 0mph
Humidity: 70% Direction: ° ()
Pressure: 30.3in Gusts: 0mph
Raw Report DataKAGC 170853Z 00000KT 10SM CLR 06/01 A3030 RMK AO2 SLP270 T00560006 51007
Traffic Incident Summary
Active as of:
Severity:
Category:
InformationThere was an issue retrieving the traffic information for this location. Please try a different location or try again shortly.
Advertisements